Time;durP1;ratioP1;P1;durP2;ratioP2;P2;SDS_P1;SDS_P2;PMS_P1;PMS_P2;Temp;Humidity;BMP_temperature;BMP_pressure;BME280_temperature;BME280_humidity;BME280_pressure;Samples;Min_cycle;Max_cycle;Signal;HPM_P1;HPM_P2
2022/04/14 04:46:56;;;;;;;0.90;0.90;;;6.00;99.90;;;;;;4936727;29;20671;-66
2022/04/14 04:49:22;;;;;;;1.00;1.00;;;6.00;99.90;;;;;;4936230;29;20223;-66
2022/04/14 04:51:49;;;;;;;1.13;1.08;;;6.00;99.90;;;;;;4936395;29;20231;-66
2022/04/14 04:54:16;;;;;;;1.10;1.10;;;6.00;99.90;;;;;;4921791;29;20229;-66
2022/04/14 04:56:43;;;;;;;1.00;1.00;;;6.00;99.90;;;;;;4917142;29;20316;-65
2022/04/14 04:59:10;;;;;;;0.93;0.93;;;6.10;99.90;;;;;;4917723;29;20232;-64
2022/04/14 05:01:37;;;;;;;1.00;1.00;;;6.20;99.90;;;;;;4917204;29;20288;-64
2022/04/14 05:04:05;;;;;;;1.05;1.05;;;6.30;99.90;;;;;;4916819;29;20316;-64
2022/04/14 05:06:32;;;;;;;0.90;0.90;;;6.40;99.90;;;;;;4916805;29;20292;-64
2022/04/14 05:08:59;;;;;;;1.00;1.00;;;6.50;99.90;;;;;;4917124;29;20296;-65
2022/04/14 05:11:25;;;;;;;0.98;0.98;;;6.60;99.90;;;;;;4917062;29;20614;-65
2022/04/14 05:13:52;;;;;;;1.25;1.25;;;6.80;99.90;;;;;;4916714;29;20761;-65
2022/04/14 05:16:19;;;;;;;1.23;1.23;;;7.00;99.90;;;;;;4916958;29;20232;-65
2022/04/14 05:18:46;;;;;;;1.30;1.30;;;7.30;99.90;;;;;;4916820;29;20648;-65
2022/04/14 05:21:14;;;;;;;1.58;1.48;;;7.50;99.90;;;;;;4917186;29;20292;-65
2022/04/14 05:23:41;;;;;;;1.50;1.40;;;7.70;99.90;;;;;;4916978;29;20325;-64
2022/04/14 05:26:08;;;;;;;1.10;1.10;;;7.90;99.90;;;;;;4917119;29;20309;-64
2022/04/14 05:28:35;;;;;;;1.00;1.00;;;8.20;99.90;;;;;;4916810;29;20700;-64
2022/04/14 05:31:02;;;;;;;1.13;1.13;;;8.60;99.90;;;;;;4917541;29;20284;-65
2022/04/14 05:33:29;;;;;;;1.20;1.20;;;8.90;99.90;;;;;;4920499;29;20232;-65
2022/04/14 05:35:56;;;;;;;1.25;1.23;;;9.30;99.90;;;;;;4920635;29;20225;-65
2022/04/14 05:38:24;;;;;;;1.20;1.20;;;9.60;99.90;;;;;;4920676;29;20205;-65
2022/04/14 05:40:51;;;;;;;1.30;1.20;;;9.80;99.90;;;;;;4920315;29;20571;-65
2022/04/14 05:43:19;;;;;;;1.10;1.10;;;10.00;99.90;;;;;;4920609;29;20229;-65
2022/04/14 05:45:47;;;;;;;1.35;1.35;;;10.30;99.90;;;;;;4920569;29;20573;-65
2022/04/14 05:48:14;;;;;;;1.67;1.58;;;10.50;99.90;;;;;;4920181;29;20249;-65
2022/04/14 05:50:42;;;;;;;1.60;1.50;;;10.80;99.90;;;;;;4920347;29;20688;-65
2022/04/14 05:53:09;;;;;;;1.40;1.33;;;10.90;99.90;;;;;;4920106;29;20225;-65
2022/04/14 05:55:38;;;;;;;1.95;1.58;;;11.20;99.90;;;;;;4920001;29;20221;-65
2022/04/14 05:58:06;;;;;;;1.75;1.70;;;11.60;99.90;;;;;;4920327;29;20685;-65
2022/04/14 06:00:34;;;;;;;1.88;1.73;;;12.60;99.90;;;;;;4920313;29;20205;-65
2022/04/14 06:03:01;;;;;;;2.13;1.80;;;14.20;99.90;;;;;;4920112;29;20225;-65
2022/04/14 06:05:28;;;;;;;3.80;2.30;;;15.40;99.90;;;;;;4919965;29;20216;-65
2022/04/14 06:07:57;;;;;;;2.63;2.38;;;16.50;99.90;;;;;;4920297;29;20293;-65
2022/04/14 06:10:25;;;;;;;4.72;2.90;;;17.90;90.80;;;;;;4920278;29;20193;-65
2022/04/14 06:12:54;;;;;;;2.58;2.38;;;19.20;67.80;;;;;;4920083;29;20221;-65
2022/04/14 06:15:21;;;;;;;2.50;1.98;;;20.30;55.90;;;;;;4920109;29;20575;-65
2022/04/14 06:17:48;;;;;;;3.22;2.20;;;21.50;51.80;;;;;;4922546;29;20321;-65
2022/04/14 06:20:17;;;;;;;2.40;1.92;;;22.40;48.60;;;;;;4923011;29;20260;-65
2022/04/14 06:22:45;;;;;;;3.03;2.30;;;23.30;45.40;;;;;;4922811;29;20220;-66
2022/04/14 06:25:16;;;;;;;4.20;2.78;;;23.80;42.60;;;;;;4922290;29;20215;-66
2022/04/14 06:27:45;;;;;;;4.30;2.75;;;23.80;41.90;;;;;;4922512;29;20648;-66
2022/04/14 06:30:15;;;;;;;4.05;2.70;;;23.70;42.10;;;;;;4922679;29;20205;-66
2022/04/14 06:32:43;;;;;;;3.42;3.13;;;23.70;42.20;;;;;;4923146;29;20198;-66
2022/04/14 06:35:15;;;;;;;4.13;2.58;;;24.20;41.90;;;;;;4923213;29;20276;-66
2022/04/14 06:37:42;;;;;;;4.63;2.85;;;24.50;40.90;;;;;;4922065;29;20668;-66
2022/04/14 06:40:11;;;;;;;6.20;2.65;;;24.40;40.80;;;;;;4922986;29;20209;-66
2022/04/14 06:42:38;;;;;;;3.05;2.63;;;24.40;40.80;;;;;;4922141;29;20236;-66
2022/04/14 06:45:06;;;;;;;3.10;2.50;;;24.60;40.70;;;;;;4920278;29;20667;-66
2022/04/14 06:47:34;;;;;;;3.63;2.15;;;24.70;41.70;;;;;;4919466;29;20257;-66
2022/04/14 06:50:02;;;;;;;1.77;1.67;;;25.40;40.70;;;;;;4919498;29;20272;-65
2022/04/14 06:52:28;;;;;;;2.08;1.88;;;26.20;39.30;;;;;;4919696;29;20248;-66
2022/04/14 06:54:55;;;;;;;1.65;1.55;;;27.00;39.60;;;;;;4919460;29;20284;-66
2022/04/14 06:57:23;;;;;;;2.08;1.80;;;27.30;40.60;;;;;;4918895;29;20775;-66
2022/04/14 06:59:49;;;;;;;1.52;1.42;;;27.50;40.90;;;;;;4919073;29;20264;-66
2022/04/14 07:02:16;;;;;;;1.92;1.73;;;27.50;40.10;;;;;;4918916;29;20204;-66
2022/04/14 07:04:44;;;;;;;2.78;1.55;;;27.60;41.60;;;;;;4919189;29;20315;-66
2022/04/14 07:07:11;;;;;;;3.92;1.60;;;;;;;;;;4919183;29;20291;-66
2022/04/14 07:09:39;;;;;;;1.67;1.42;;;;;;;;;;4919191;29;20234;-66
2022/04/14 07:12:07;;;;;;;3.50;1.65;;;29.70;36.60;;;;;;4919219;29;20204;-66
2022/04/14 07:14:34;;;;;;;2.17;1.50;;;;;;;;;;4919572;29;20229;-66
2022/04/14 07:17:01;;;;;;;3.80;1.73;;;31.40;44.20;;;;;;4919098;29;20593;-66
2022/04/14 07:19:28;;;;;;;1.42;1.30;;;31.20;32.40;;;;;;4918861;29;20296;-66
2022/04/14 07:21:57;;;;;;;2.30;1.58;;;31.70;34.20;;;;;;4921522;29;20232;-66
2022/04/14 07:24:24;;;;;;;1.70;1.50;;;;;;;;;;4921233;29;20244;-66
2022/04/14 07:26:52;;;;;;;2.40;1.02;;;;;;;;;;4921207;29;20325;-66
2022/04/14 07:29:20;;;;;;;2.38;1.67;;;;;;;;;;4921522;29;20617;-66
2022/04/14 07:31:49;;;;;;;1.60;1.50;;;31.70;36.80;;;;;;4921569;29;20259;-66
2022/04/14 07:34:17;;;;;;;1.45;1.35;;;31.70;35.20;;;;;;4921110;29;20235;-66
2022/04/14 07:36:45;;;;;;;2.15;1.40;;;;;;;;;;4920961;29;20217;-66
2022/04/14 07:39:14;;;;;;;1.75;1.63;;;30.90;35.40;;;;;;4921082;29;20589;-66
2022/04/14 07:41:41;;;;;;;2.05;1.85;;;;;;;;;;4921291;29;20260;-66
2022/04/14 07:44:08;;;;;;;1.27;1.13;;;30.50;36.20;;;;;;4920721;29;20224;-66
2022/04/14 07:46:38;;;;;;;1.65;1.50;;;;;;;;;;4920261;29;20207;-66
2022/04/14 07:49:06;;;;;;;2.40;1.42;;;30.40;50.60;;;;;;4920643;29;20303;-66
2022/04/14 07:51:33;;;;;;;3.42;1.80;;;29.20;37.30;;;;;;4921294;29;20264;-66
2022/04/14 07:54:01;;;;;;;2.08;1.50;;;28.10;36.20;;;;;;4921885;29;20707;-66
2022/04/14 07:56:29;;;;;;;1.48;1.35;;;26.60;37.70;;;;;;4920502;29;20363;-66
2022/04/14 07:58:56;;;;;;;1.95;1.70;;;25.40;40.40;;;;;;4918576;29;20205;-66
2022/04/14 08:01:24;;;;;;;1.60;1.40;;;24.40;42.80;;;;;;4918283;29;20308;-66
2022/04/14 08:03:52;;;;;;;2.90;1.35;;;23.50;44.70;;;;;;4917827;29;20240;-66
2022/04/14 08:06:19;;;;;;;1.08;1.08;;;22.70;47.30;;;;;;4917767;29;20616;-66
2022/04/14 08:08:46;;;;;;;1.63;1.52;;;22.10;51.10;;;;;;4918047;29;20205;-65
2022/04/14 08:11:13;;;;;;;3.75;1.17;;;22.70;58.90;;;;;;4917629;29;20673;-65
2022/04/14 08:13:42;;;;;;;1.65;1.50;;;24.40;51.20;;;;;;4917877;29;20341;-66
2022/04/14 08:16:09;;;;;;;1.33;1.23;;;25.60;45.90;;;;;;4917762;29;20367;-66
2022/04/14 08:18:38;;;;;;;1.13;1.10;;;25.60;43.10;;;;;;4917715;29;20668;-65
2022/04/14 08:21:06;;;;;;;1.45;1.35;;;24.90;43.50;;;;;;4917872;29;20209;-65
2022/04/14 08:23:38;;;;;;;1.48;1.38;;;23.90;44.50;;;;;;4917755;29;20336;-66
2022/04/14 08:26:06;;;;;;;1.27;0.82;;;23.00;47.50;;;;;;4917498;29;20649;-65
2022/04/14 08:28:33;;;;;;;1.00;1.00;;;22.60;50.70;;;;;;4917451;29;20209;-65
2022/04/14 08:31:02;;;;;;;1.00;1.00;;;22.30;51.90;;;;;;4917733;29;20228;-65
2022/04/14 08:33:30;;;;;;;0.77;0.77;;;22.30;52.40;;;;;;4917764;29;20225;-65
2022/04/14 08:35:58;;;;;;;1.20;1.20;;;22.20;51.40;;;;;;4917416;29;20280;-65
2022/04/14 08:38:25;;;;;;;1.55;1.48;;;21.90;51.00;;;;;;4917600;29;20205;-65
2022/04/14 08:40:58;;;;;;;2.38;1.50;;;21.60;51.10;;;;;;4917565;29;20315;-65
2022/04/14 08:43:32;;;;;;;4.20;2.30;;;21.30;52.40;;;;;;4917432;29;20319;-65
2022/04/14 08:46:03;;;;;;;1.83;1.40;;;20.90;54.80;;;;;;4917271;29;20236;-65
2022/04/14 08:48:31;;;;;;;2.47;2.15;;;20.70;58.70;;;;;;4917196;29;20673;-66
2022/04/14 08:50:58;;;;;;;2.10;1.85;;;20.50;57.50;;;;;;4917316;29;20204;-66
2022/04/14 08:53:27;;;;;;;1.50;1.40;;;20.40;59.50;;;;;;4917136;29;20235;-66
2022/04/14 08:55:54;;;;;;;5.88;2.20;;;20.30;60.70;;;;;;4917374;29;20569;-66
2022/04/14 08:58:26;;;;;;;2.42;2.22;;;20.20;62.80;;;;;;4917023;29;20747;-66
2022/04/14 09:00:54;;;;;;;5.25;2.60;;;20.00;63.10;;;;;;4917622;29;20204;-66
2022/04/14 09:03:25;;;;;;;4.28;2.30;;;19.80;64.40;;;;;;4917292;29;20232;-66
2022/04/14 09:05:52;;;;;;;2.88;2.20;;;19.70;67.50;;;;;;4917062;29;20296;-65
2022/04/14 09:08:19;;;;;;;4.38;2.28;;;19.70;67.30;;;;;;4917248;29;20287;-65
2022/04/14 09:10:46;;;;;;;2.83;2.50;;;19.60;69.50;;;;;;4917154;29;20205;-65
2022/04/14 09:13:14;;;;;;;2.35;1.88;;;19.70;64.00;;;;;;4916831;29;20320;-65
2022/04/14 09:15:41;;;;;;;4.22;2.35;;;19.70;59.90;;;;;;4917264;29;20260;-66
2022/04/14 09:18:08;;;;;;;2.75;2.55;;;19.80;60.30;;;;;;4917163;29;20316;-66
2022/04/14 09:20:41;;;;;;;3.63;2.40;;;19.80;58.20;;;;;;4917203;29;20211;-65
2022/04/14 09:23:20;;;;;;;2.65;2.05;;;19.90;60.30;;;;;;4916932;29;20701;-65
2022/04/14 09:25:48;;;;;;;2.78;2.55;;;;;;;;;;4917176;29;20204;-66
2022/04/14 09:28:17;;;;;;;2.30;2.10;;;20.00;86.70;;;;;;4917148;29;20247;-65
2022/04/14 09:30:58;;;;;;;4.40;2.78;;;;;;;;;;4916731;29;20759;-65
2022/04/14 09:33:26;;;;;;;3.67;1.80;;;;;;;;;;4917329;29;20228;-65
2022/04/14 09:36:06;;;;;;;2.47;2.13;;;;;;;;;;4918099;29;20204;-65
2022/04/14 09:38:49;;;;;;;2.28;2.08;;;;;;;;;;4917012;29;20212;-65
2022/04/14 09:41:27;;;;;;;2.65;2.15;;;;;;;;;;4917022;29;20200;-65
2022/04/14 09:43:55;;;;;;;4.00;2.75;;;;;;;;;;4916684;29;20596;-65
2022/04/14 09:46:22;;;;;;;2.67;2.47;;;;;;;;;;4917030;29;20215;-65
2022/04/14 09:49:07;;;;;;;3.03;2.72;;;;;;;;;;4916591;29;20311;-65
2022/04/14 09:51:36;;;;;;;3.72;2.67;;;;;;;;;;4916549;29;20193;-66
2022/04/14 09:54:04;;;;;;;4.07;2.80;;;;;;;;;;4916423;29;20721;-65
2022/04/14 09:56:40;;;;;;;4.43;2.50;;;;;;;;;;4916765;29;20212;-65
2022/04/14 09:59:08;;;;;;;3.17;2.22;;;;;;;;;;4916392;29;20295;-65
2022/04/14 10:01:35;;;;;;;3.63;2.60;;;;;;;;;;4916764;29;20242;-65
2022/04/14 10:04:04;;;;;;;3.05;2.58;;;;;;;;;;4916838;29;20225;-65
2022/04/14 10:06:31;;;;;;;3.08;2.25;;;;;;;;;;4917585;29;20217;-65
2022/04/14 10:09:00;;;;;;;3.05;2.70;;;;;;;;;;4916766;29;20209;-65
2022/04/14 10:11:29;;;;;;;2.40;2.20;;;;;;;;;;4917051;29;20216;-65
2022/04/14 10:14:10;;;;;;;2.40;2.30;;;;;;;;;;4916996;29;20225;-65
2022/04/14 10:16:39;;;;;;;3.00;2.67;;;;;;;;;;4916346;29;20200;-65
2022/04/14 10:19:07;;;;;;;2.30;2.20;;;;;;;;;;4919095;29;20201;-65
2022/04/14 10:21:34;;;;;;;2.42;2.20;;;;;;;;;;4920028;29;20209;-65
2022/04/14 10:24:05;;;;;;;2.33;2.13;;;;;;;;;;4920823;29;20231;-65
2022/04/14 10:26:33;;;;;;;3.05;2.75;;;;;;;;;;4919947;29;20185;-65
2022/04/14 10:29:03;;;;;;;2.85;2.65;;;;;;;;;;4921738;29;20211;-65
2022/04/14 10:31:31;;;;;;;3.40;2.80;;;;;;;;;;4920575;29;20211;-65
2022/04/14 10:33:59;;;;;;;2.03;1.92;;;;;;;;;;4922592;29;20312;-65
2022/04/14 10:36:27;;;;;;;2.92;2.17;;;;;;;;;;4923037;29;20201;-64
2022/04/14 10:38:54;;;;;;;1.63;1.52;;;;;;;;;;4921326;29;20232;-65
2022/04/14 10:41:24;;;;;;;2.30;2.08;;;;;;;;;;4921397;29;20189;-66
2022/04/14 10:43:51;;;;;;;2.25;1.75;;;;;;;;;;4919846;29;20542;-66
2022/04/14 10:46:18;;;;;;;3.95;2.80;;;;;;;;;;4922387;29;20213;-65
2022/04/14 10:48:46;;;;;;;3.15;2.60;;;;;;;;;;4921704;29;20208;-65
2022/04/14 10:51:27;;;;;;;2.55;2.35;;;;;;;;;;4922372;29;20208;-65
2022/04/14 10:53:59;;;;;;;2.50;2.10;;;;;;;;;;4922061;29;20296;-65
2022/04/14 10:56:46;;;;;;;3.30;2.50;;;;;;;;;;4922191;29;20231;-65
2022/04/14 10:59:14;;;;;;;3.65;2.80;;;;;;;;;;4922513;29;20363;-65
2022/04/14 11:01:54;;;;;;;2.72;2.53;;;;;;;;;;4921207;29;20215;-66
2022/04/14 11:04:25;;;;;;;2.20;2.10;;;;;;;;;;4920035;29;20229;-65
2022/04/14 11:07:20;;;;;;;3.75;2.13;;;;;;;;;;4919287;29;20244;-66
2022/04/14 11:09:49;;;;;;;2.30;2.10;;;;;;;;;;4920522;29;20193;-65
2022/04/14 11:12:19;;;;;;;2.40;2.00;;;;;;;;;;4919199;29;20201;-65
2022/04/14 11:14:47;;;;;;;2.58;2.38;;;;;;;;;;4919286;29;20220;-66
2022/04/14 11:17:33;;;;;;;2.13;1.92;;;;;;;;;;4918494;29;20796;-64
2022/04/14 11:20:13;;;;;;;2.40;2.00;;;;;;;;;;4918336;29;20207;-64
2022/04/14 11:22:55;;;;;;;2.47;2.20;;;;;;;;;;4918328;29;20241;-65
2022/04/14 11:25:42;;;;;;;3.13;2.78;;;;;;;;;;4918144;29;20215;-64
2022/04/14 11:28:27;;;;;;;2.35;2.25;;;;;;;;;;4918689;29;20208;-65
2022/04/14 11:30:56;;;;;;;2.58;1.52;;;;;;;;;;4918921;29;20200;-65
2022/04/14 11:33:27;;;;;;;2.33;2.20;;;;;;;;;;4918020;29;20541;-64
2022/04/14 11:35:55;;;;;;;2.42;2.22;;;;;;;;;;4917947;29;20293;-64
2022/04/14 11:38:37;;;;;;;1.60;1.50;;;;;;;;;;4917943;29;20252;-64
2022/04/14 11:41:04;;;;;;;3.22;2.10;;;;;;;;;;4917958;29;20676;-65
2022/04/14 11:43:31;;;;;;;4.18;2.33;;;;;;;;;;4917931;29;20730;-65
2022/04/14 11:46:00;;;;;;;1.85;1.67;;;;;;;;;;4918986;29;20209;-65
2022/04/14 11:48:27;;;;;;;3.40;2.00;;;;;;;;;;4918775;29;20223;-65
2022/04/14 11:50:56;;;;;;;3.10;1.65;;;;;;;;;;4918585;29;20208;-64
2022/04/14 11:53:30;;;;;;;2.63;1.52;;;;;;;;;;4918351;29;20298;-65
2022/04/14 11:55:57;;;;;;;1.45;1.30;;;;;;;;;;4918358;29;20197;-64
2022/04/14 11:58:24;;;;;;;1.40;1.20;;;;;;;;;;4918146;29;20299;-64
2022/04/14 12:00:52;;;;;;;1.00;1.00;;;;;;;;;;4917958;29;20676;-65
2022/04/14 12:03:30;;;;;;;2.33;1.95;;;;;;;;;;4918230;29;20311;-66
2022/04/14 12:06:02;;;;;;;2.90;1.55;;;;;;;;;;4917665;29;20268;-66
2022/04/14 12:08:29;;;;;;;1.60;1.48;;;;;;;;;;4919562;29;20626;-65
2022/04/14 12:10:56;;;;;;;3.33;1.60;;;;;;;;;;4920543;29;20231;-65
2022/04/14 12:13:24;;;;;;;1.30;1.20;;;;;;;;;;4919484;29;20235;-64
2022/04/14 12:16:01;;;;;;;1.40;1.30;;;;;;;;;;4920708;29;20212;-64
2022/04/14 12:18:29;;;;;;;1.70;1.60;;;;;;;;;;4920221;29;20696;-64
2022/04/14 12:20:57;;;;;;;3.15;1.85;;;;;;;;;;4920009;29;20201;-64
2022/04/14 12:23:24;;;;;;;4.68;2.28;;;;;;;;;;4919856;29;20289;-65
2022/04/14 12:25:52;;;;;;;2.97;1.65;;;22.50;49.10;;;;;;4920418;29;20844;-73
2022/04/14 12:28:20;;;;;;;18.52;2.53;;;;;;;;;;4920903;29;20236;-63
2022/04/14 12:30:47;;;;;;;4.78;2.63;;;;;;;;;;4920377;29;20288;-64
2022/04/14 12:33:14;;;;;;;1.80;1.67;;;;;;;;;;4920250;29;20397;-65
2022/04/14 12:35:43;;;;;;;2.55;2.35;;;;;;;;;;4920240;29;20295;-64
2022/04/14 12:38:14;;;;;;;3.05;2.10;;;;;;;;;;4917529;29;20247;-64
2022/04/14 12:40:53;;;;;;;2.67;2.38;;;;;;;;;;4916637;29;20215;-64
2022/04/14 12:43:24;;;;;;;4.55;1.70;;;;;;;;;;4918848;29;20315;-63
2022/04/14 12:45:51;;;;;;;1.58;1.48;;;21.70;38.10;;;;;;4920534;29;20293;-67
2022/04/14 12:48:28;;;;;;;4.97;2.75;;;21.60;38.70;;;;;;4920203;29;20216;-67
2022/04/14 12:50:57;;;;;;;5.35;3.20;;;21.50;38.50;;;;;;4920504;29;20204;-63
2022/04/14 12:53:25;;;;;;;5.95;2.83;;;21.30;39.40;;;;;;4919718;29;20224;-66
2022/04/14 12:55:53;;;;;;;2.42;2.15;;;21.20;39.50;;;;;;4917081;29;20641;-66
2022/04/14 12:58:19;;;;;;;4.18;2.00;;;21.20;39.50;;;;;;4916936;29;20593;-66
2022/04/14 13:00:46;;;;;;;5.13;2.63;;;21.30;40.00;;;;;;4916968;29;20300;-67
2022/04/14 13:03:17;;;;;;;2.63;2.08;;;21.30;39.40;;;;;;4917393;29;20259;-65
2022/04/14 13:05:45;;;;;;;1.70;1.58;;;21.20;40.10;;;;;;4917231;29;20263;-66
2022/04/14 13:08:13;;;;;;;1.15;1.13;;;21.20;40.10;;;;;;4917133;29;20307;-70
2022/04/14 13:10:41;;;;;;;1.50;1.50;;;21.30;40.70;;;;;;4917103;29;20572;-70
2022/04/14 13:13:10;;;;;;;3.22;1.88;;;21.40;40.00;;;;;;4917009;29;20231;-67
2022/04/14 13:15:38;;;;;;;2.15;1.40;;;21.40;40.10;;;;;;4917121;29;20200;-67
2022/04/14 13:18:05;;;;;;;1.50;1.50;;;21.30;40.40;;;;;;4916980;29;20253;-67
2022/04/14 13:20:35;;;;;;;1.92;1.77;;;21.40;40.00;;;;;;4916810;29;20201;-67
2022/04/14 13:23:02;;;;;;;2.67;1.83;;;21.50;40.40;;;;;;4916667;29;20713;-67
2022/04/14 13:25:30;;;;;;;1.88;1.77;;;21.40;39.60;;;;;;4918690;29;20287;-67
2022/04/14 13:27:57;;;;;;;2.42;2.13;;;21.40;39.30;;;;;;4917659;29;20291;-67
2022/04/14 13:30:24;;;;;;;1.35;1.10;;;21.30;39.00;;;;;;4916886;29;20209;-67
2022/04/14 13:32:51;;;;;;;4.53;3.03;;;21.20;39.60;;;;;;4917058;29;20224;-67
2022/04/14 13:35:18;;;;;;;5.82;3.13;;;21.10;38.50;;;;;;4916975;29;20205;-67
2022/04/14 13:37:44;;;;;;;4.50;2.88;;;20.80;38.80;;;;;;4916692;29;20303;-66
2022/04/14 13:40:13;;;;;;;5.40;2.83;;;20.70;39.50;;;;;;4916862;29;20252;-66
2022/04/14 13:42:42;;;;;;;2.15;1.67;;;20.70;40.20;;;;;;4916811;29;20205;-65
2022/04/14 13:45:10;;;;;;;4.93;2.53;;;20.60;40.80;;;;;;4916677;29;20215;-66
2022/04/14 13:47:39;;;;;;;3.97;1.90;;;20.60;40.70;;;;;;4916624;29;20235;-65
2022/04/14 13:50:07;;;;;;;2.85;1.80;;;20.50;41.60;;;;;;4916785;29;20200;-66
2022/04/14 13:52:34;;;;;;;2.63;1.80;;;20.40;41.20;;;;;;4916678;29;20238;-66
2022/04/14 13:55:01;;;;;;;3.78;2.33;;;20.30;41.40;;;;;;4919866;29;20208;-67
2022/04/14 13:57:28;;;;;;;2.47;1.90;;;20.30;42.30;;;;;;4920361;29;20350;-66
2022/04/14 13:59:57;;;;;;;2.65;2.00;;;20.20;42.40;;;;;;4920283;29;20251;-68
2022/04/14 14:02:24;;;;;;;2.97;1.55;;;20.20;42.30;;;;;;4920395;29;20193;-67
2022/04/14 14:04:51;;;;;;;2.42;1.75;;;20.10;42.60;;;;;;4920364;29;20224;-67
2022/04/14 14:07:18;;;;;;;3.65;2.03;;;20.10;43.50;;;;;;4920641;29;20204;-68
2022/04/14 14:09:45;;;;;;;3.28;1.83;;;20.10;43.60;;;;;;4920518;29;20296;-67
2022/04/14 14:12:13;;;;;;;2.60;1.90;;;20.00;43.70;;;;;;4920238;29;20276;-67
2022/04/14 14:14:40;;;;;;;1.90;1.60;;;20.00;44.00;;;;;;4920404;29;20256;-67
2022/04/14 14:17:09;;;;;;;1.92;1.35;;;19.90;44.50;;;;;;4920360;29;20208;-68
2022/04/14 14:19:36;;;;;;;1.35;1.23;;;19.90;45.00;;;;;;4919966;29;20232;-67
2022/04/14 14:22:03;;;;;;;7.10;1.70;;;19.80;45.20;;;;;;4920245;29;20567;-67
2022/04/14 14:24:30;;;;;;;3.42;1.92;;;19.80;44.80;;;;;;4920120;29;20225;-67
2022/04/14 14:26:57;;;;;;;3.63;1.60;;;19.70;44.90;;;;;;4920119;29;20216;-67
2022/04/14 14:29:24;;;;;;;4.93;1.75;;;19.70;45.40;;;;;;4919973;29;20379;-68
2022/04/14 14:31:51;;;;;;;4.47;2.85;;;19.60;45.60;;;;;;4919755;29;20228;-68
2022/04/14 14:34:19;;;;;;;10.18;5.10;;;19.60;46.00;;;;;;4919892;29;20227;-65
2022/04/14 14:36:47;;;;;;;6.35;2.75;;;19.60;46.80;;;;;;4922735;29;20268;-65
2022/04/14 14:39:15;;;;;;;5.15;2.08;;;19.60;46.80;;;;;;4930257;29;20221;-66
2022/04/14 14:41:42;;;;;;;4.80;1.70;;;19.60;46.80;;;;;;4924644;29;20296;-65
2022/04/14 14:44:09;;;;;;;3.05;1.98;;;19.60;47.30;;;;;;4919607;29;20607;-66
2022/04/14 14:46:36;;;;;;;1.80;1.70;;;19.60;48.00;;;;;;4919663;29;20299;-66
2022/04/14 14:49:02;;;;;;;1.85;1.75;;;19.60;48.90;;;;;;4919147;29;20246;-66
2022/04/14 14:51:31;;;;;;;2.53;1.38;;;19.60;49.30;;;;;;4919434;29;20236;-65
2022/04/14 14:53:58;;;;;;;1.80;1.40;;;19.60;49.90;;;;;;4919342;29;20267;-66
2022/04/14 14:56:24;;;;;;;3.90;2.05;;;19.60;50.20;;;;;;4919099;29;20764;-66
2022/04/14 15:01:35;;;;;;;5.50;2.30;;;19.50;51.80;;;;;;4919218;29;20652;-66
2022/04/14 15:04:02;;;;;;;4.55;2.30;;;19.50;53.30;;;;;;4918373;29;20659;-66
2022/04/14 15:06:30;;;;;;;3.03;1.52;;;19.40;54.90;;;;;;4918950;29;20217;-66
2022/04/14 15:08:57;;;;;;;2.95;2.03;;;19.40;56.60;;;;;;4918867;29;20200;-66
2022/04/14 15:11:24;;;;;;;2.70;1.70;;;19.40;58.00;;;;;;4919098;29;20270;-66
2022/04/14 15:13:51;;;;;;;3.25;1.88;;;19.50;59.00;;;;;;4919110;29;20324;-66
2022/04/14 15:16:18;;;;;;;1.70;1.60;;;19.50;60.80;;;;;;4918822;29;20204;-65
2022/04/14 15:18:45;;;;;;;1.63;1.35;;;19.60;62.10;;;;;;4918941;29;20224;-65
2022/04/14 15:21:12;;;;;;;1.35;1.35;;;19.70;65.00;;;;;;4918921;29;20227;-65
2022/04/14 15:23:40;;;;;;;3.92;2.38;;;19.80;64.50;;;;;;4918726;29;20228;-65
2022/04/14 15:26:08;;;;;;;3.83;2.10;;;19.80;64.10;;;;;;4918534;29;20217;-66
2022/04/14 15:28:34;;;;;;;4.40;2.15;;;19.80;64.30;;;;;;4918932;29;20397;-66
2022/04/14 15:31:03;;;;;;;1.92;1.83;;;19.90;64.60;;;;;;4918367;29;20744;-64
2022/04/14 15:33:32;;;;;;;3.25;1.70;;;19.90;65.90;;;;;;4918899;29;20239;-65
2022/04/14 15:35:59;;;;;;;3.70;2.33;;;19.90;66.50;;;;;;4918991;29;20733;-66
2022/04/14 15:38:26;;;;;;;3.28;2.40;;;20.00;66.10;;;;;;4918577;29;20287;-64
2022/04/14 15:40:56;;;;;;;3.90;2.88;;;20.00;64.70;;;;;;4918614;29;20232;-65
2022/04/14 15:43:23;;;;;;;2.42;2.22;;;20.10;64.20;;;;;;4918571;29;20267;-66
2022/04/14 15:45:50;;;;;;;5.47;2.65;;;20.20;64.40;;;;;;4918315;29;20599;-65
2022/04/14 15:48:17;;;;;;;3.42;2.80;;;20.30;62.70;;;;;;4918291;29;20244;-66
2022/04/14 15:50:47;;;;;;;3.47;2.55;;;20.20;60.60;;;;;;4918536;29;20207;-66
2022/04/14 15:53:15;;;;;;;2.42;2.30;;;20.20;61.20;;;;;;4918037;29;20244;-65
2022/04/14 15:55:44;;;;;;;3.75;2.67;;;20.20;62.30;;;;;;4919069;29;20208;-65
2022/04/14 15:58:13;;;;;;;3.22;2.20;;;20.10;64.80;;;;;;4918237;29;20212;-65
2022/04/14 16:00:39;;;;;;;4.95;2.58;;;20.10;65.70;;;;;;4918600;29;20254;-66
2022/04/14 16:03:06;;;;;;;8.68;3.90;;;20.10;67.90;;;;;;4918312;29;20279;-66
2022/04/14 16:05:34;;;;;;;3.13;2.83;;;20.00;69.30;;;;;;4918765;29;20681;-65
2022/04/14 16:08:01;;;;;;;2.90;2.60;;;20.00;66.10;;;;;;4917994;29;20205;-66
2022/04/14 16:13:15;;;;;;;7.50;3.30;;;19.80;68.70;;;;;;4917766;29;20366;-67
2022/04/14 16:15:44;;;;;;;6.22;3.13;;;19.70;72.90;;;;;;4917196;29;20201;-66
2022/04/14 16:18:11;;;;;;;4.75;3.67;;;19.60;77.00;;;;;;4918263;29;20204;-66
2022/04/14 16:20:38;;;;;;;4.82;3.38;;;19.60;77.10;;;;;;4917604;29;20225;-65
2022/04/14 16:23:05;;;;;;;7.40;3.30;;;19.50;80.00;;;;;;4917915;29;20259;-65
2022/04/14 16:25:32;;;;;;;5.18;3.08;;;19.40;84.20;;;;;;4917962;29;20209;-65
2022/04/14 16:27:59;;;;;;;5.85;3.90;;;19.40;87.30;;;;;;4917859;29;20309;-66
2022/04/14 16:30:27;;;;;;;7.40;3.35;;;19.30;90.00;;;;;;4918395;29;20296;-65
2022/04/14 16:32:54;;;;;;;4.20;3.72;;;19.20;91.60;;;;;;4917685;29;20225;-66
2022/04/14 16:35:21;;;;;;;5.03;3.30;;;19.10;93.00;;;;;;4917723;29;20209;-65
2022/04/14 16:37:48;;;;;;;5.38;3.63;;;19.00;94.10;;;;;;4917579;29;20235;-66
2022/04/14 16:40:15;;;;;;;6.50;4.18;;;18.90;95.10;;;;;;4917687;29;20256;-65
2022/04/14 16:42:44;;;;;;;6.03;4.28;;;18.80;96.50;;;;;;4917613;29;20632;-65
2022/04/14 16:45:11;;;;;;;5.13;3.92;;;18.70;98.00;;;;;;4917582;29;20251;-66
2022/04/14 16:47:40;;;;;;;4.50;2.92;;;18.60;99.70;;;;;;4917203;29;20541;-66
2022/04/14 16:50:09;;;;;;;5.80;3.50;;;18.60;99.90;;;;;;4917496;29;20192;-66
2022/04/14 16:52:36;;;;;;;6.60;3.28;;;18.50;99.90;;;;;;4918018;29;20230;-66
2022/04/14 16:55:04;;;;;;;5.28;3.10;;;18.40;99.90;;;;;;4917184;29;20240;-66
2022/04/14 16:57:31;;;;;;;3.55;3.10;;;18.40;99.90;;;;;;4917364;29;20201;-66
2022/04/14 16:59:58;;;;;;;3.47;2.97;;;18.40;99.90;;;;;;4917241;29;20226;-66
2022/04/14 17:02:24;;;;;;;4.80;3.35;;;18.30;99.90;;;;;;4917452;29;20231;-66
2022/04/14 17:04:53;;;;;;;4.13;3.03;;;18.30;99.90;;;;;;4917318;29;20232;-67
2022/04/14 17:07:19;;;;;;;3.67;2.72;;;18.20;99.90;;;;;;4917221;29;20244;-66
2022/04/14 17:09:46;;;;;;;2.72;2.50;;;18.20;99.90;;;;;;4917052;29;20243;-66
2022/04/14 17:12:13;;;;;;;3.40;3.10;;;18.20;99.90;;;;;;4917148;29;20201;-66
2022/04/14 17:14:40;;;;;;;3.80;3.35;;;18.10;99.90;;;;;;4917012;29;20320;-65
2022/04/14 17:17:07;;;;;;;3.28;2.97;;;18.10;99.90;;;;;;4917523;29;20244;-67
2022/04/14 17:19:34;;;;;;;2.72;2.53;;;18.10;99.90;;;;;;4916681;29;20231;-68
2022/04/14 17:24:47;;;;;;;3.72;3.40;;;18.10;99.90;;;;;;4916901;29;20236;-68
2022/04/14 17:27:14;;;;;;;2.75;2.60;;;18.00;99.90;;;;;;4917788;29;20205;-69
2022/04/14 17:29:41;;;;;;;7.43;4.88;;;18.00;99.90;;;;;;4920869;29;20564;-68
2022/04/14 17:32:08;;;;;;;12.38;4.97;;;17.90;99.90;;;;;;4921101;29;20630;-68
2022/04/14 17:34:35;;;;;;;6.10;4.35;;;17.90;99.90;;;;;;4921827;29;20307;-68
2022/04/14 17:37:03;;;;;;;4.97;4.32;;;17.80;99.90;;;;;;4920648;29;20201;-68
2022/04/14 17:39:30;;;;;;;4.05;3.58;;;17.80;99.90;;;;;;4920631;29;20228;-68
2022/04/14 17:41:57;;;;;;;2.95;2.70;;;17.70;99.90;;;;;;4920628;29;20207;-68
2022/04/14 17:44:23;;;;;;;2.40;2.30;;;17.60;99.90;;;;;;4920597;29;20315;-68
2022/04/14 17:46:50;;;;;;;2.60;2.40;;;17.60;99.90;;;;;;4920298;29;20228;-68
2022/04/14 17:49:17;;;;;;;2.28;2.17;;;17.60;99.90;;;;;;4920332;29;20641;-69
2022/04/14 17:51:44;;;;;;;3.25;2.95;;;17.50;99.90;;;;;;4920341;29;20247;-69
2022/04/14 17:54:13;;;;;;;2.72;2.53;;;17.40;99.90;;;;;;4920845;29;20235;-68
2022/04/14 17:56:39;;;;;;;2.60;2.50;;;17.40;99.90;;;;;;4920801;29;20233;-69
2022/04/14 17:59:06;;;;;;;2.30;2.20;;;17.30;99.90;;;;;;4920443;29;20233;-69
2022/04/14 18:01:34;;;;;;;3.90;3.13;;;17.30;99.90;;;;;;4920618;29;20284;-68
2022/04/14 18:04:02;;;;;;;5.20;4.03;;;17.20;99.90;;;;;;4921270;29;20316;-69
2022/04/14 18:06:30;;;;;;;4.88;4.00;;;17.20;99.90;;;;;;4920275;29;20213;-69
2022/04/14 18:08:58;;;;;;;7.28;5.13;;;;;;;;;;4920357;29;20225;-69
2022/04/14 18:11:29;;;;;;;8.68;5.95;;;17.00;99.90;;;;;;4920490;29;20208;-69
2022/04/14 18:13:56;;;;;;;6.07;4.85;;;16.90;99.90;;;;;;4920075;29;20231;-69
2022/04/14 18:16:23;;;;;;;6.30;4.75;;;16.90;99.90;;;;;;4920478;29;20254;-69